TimeCDT,TemperatureF,Dew PointF,Humidity,Sea Level PressureIn,VisibilityMPH,Wind Direction,Wind SpeedMPH,Gust SpeedMPH,PrecipitationIn,Events,Conditions,WindDirDegrees,DateUTC
1:53 AM,70.0,64.9,84,30.16,10.0,South,5.8,-,N/A,,Clear,190,2012-10-12 06:53:00
2:53 AM,70.0,64.9,84,30.16,10.0,SSW,5.8,-,N/A,,Clear,200,2012-10-12 07:53:00
3:53 AM,70.0,64.0,81,30.17,10.0,SSW,5.8,-,N/A,,Clear,200,2012-10-12 08:53:00
4:53 AM,70.0,64.0,81,30.16,10.0,South,3.5,-,N/A,,Clear,190,2012-10-12 09:53:00
5:53 AM,63.0,61.0,93,30.18,4.0,Calm,Calm,-,N/A,,Clear,0,2012-10-12 10:53:00
6:53 AM,64.0,62.1,93,30.20,4.0,Calm,Calm,-,N/A,,Clear,0,2012-10-12 11:53:00
7:01 AM,64.4,62.6,94,30.21,2.0,Calm,Calm,-,N/A,,Scattered Clouds,0,2012-10-12 12:01:00
7:13 AM,62.6,60.8,94,30.21,4.0,Calm,Calm,-,N/A,,Mostly Cloudy,0,2012-10-12 12:13:00
7:53 AM,63.0,61.0,93,30.22,5.0,Calm,Calm,-,0.01,,Clear,0,2012-10-12 12:53:00
9:53 AM,75.9,64.0,67,30.24,10.0,WSW,6.9,-,N/A,,Mostly Cloudy,250,2012-10-12 14:53:00
11:53 AM,79.0,64.9,62,30.25,10.0,West,5.8,-,N/A,,Partly Cloudy,260,2012-10-12 16:53:00
12:53 PM,81.0,66.0,60,30.22,10.0,SW,4.6,-,N/A,,Mostly Cloudy,220,2012-10-12 17:53:00
1:53 PM,82.0,66.0,58,30.21,10.0,NNW,3.5,-,N/A,,Overcast,330,2012-10-12 18:53:00
2:53 PM,80.1,68.0,67,30.19,10.0,ENE,4.6,-,N/A,,Mostly Cloudy,70,2012-10-12 19:53:00
3:53 PM,80.1,66.9,64,30.19,10.0,ENE,4.6,-,N/A,,Overcast,70,2012-10-12 20:53:00
4:53 PM,80.1,68.0,67,30.19,10.0,ENE,3.5,-,N/A,,Overcast,60,2012-10-12 21:53:00
5:53 PM,78.1,69.1,74,30.18,10.0,Calm,Calm,-,0.00,Rain,Light Rain,0,2012-10-12 22:53:00
6:53 PM,73.9,69.1,85,30.19,8.0,Calm,Calm,-,0.00,,Clear,0,2012-10-12 23:53:00
7:53 PM,70.0,68.0,93,30.18,5.0,Calm,Calm,-,N/A,,Clear,0,2012-10-13 00:53:00
9:53 PM,68.0,66.9,96,30.16,4.0,SSE,3.5,-,N/A,,Clear,160,2012-10-13 02:53:00
10:53 PM,68.0,66.0,93,30.17,3.0,Calm,Calm,-,N/A,,Clear,0,2012-10-13 03:53:00
11:38 PM,66.2,64.4,94,30.18,2.5,Calm,Calm,-,N/A,,Clear,0,2012-10-13 04:38:00
11:48 PM,66.2,64.4,94,30.18,3.0,Calm,Calm,-,N/A,,Clear,0,2012-10-13 04:48:00
11:53 PM,66.0,64.0,93,30.17,3.0,Calm,Calm,-,N/A,,Clear,0,2012-10-13 04:53:00